Detall de PIREP

Printer-friendly versionPDF version

[2013/10/12 14:55:00]
Flight IATA:CT1001
Pilot Number:026
Company ICAO:CAT
Aircraft Type:F50/A
PAX:50
Aircraft Registration:PAOB
Departing Airport: LIEA
Destination Airport: LEIB
Alternate Airport:LEPA
Online: VATSIM
Route:SUPUX UZ924 RIPAL UM603 MORSS
Flight Level:F230
No Slew and time accel
No pause
Crash detect
Detect pilot in Cockpit between each 30 and 45 minutes
14:55 Zero fuel Weight: 38320 Lbs, Fuel Weight: 3999 Lbs
14:55 VATSIM:LIEA 121420Z 04004KT 320V090 CAVOK 22/13 Q1019
14:55 VATSIM:LEIB 121430Z 21006KT 9999 FEW045 24/17 Q1017 NOSIG
14:55 VOICE CATALONIAN / MEDITERRANEAN ODYSSEY LEG6
15:03 Parking Brakes off
15:09 Take-off
15:09 Take off Weight: 42219 Lbs
15:09 Wind: 037º @ 008 Knots Heading: 201º
15:09 POS N40º 37´ 45´´ E008º 17´ 22´´
15:09 Gear Up: 122 Knots
15:09 Flaps:3 at 122 Knots
15:09 Flaps:2 at 137 Knots
15:10 Flaps:1 at 141 Knots
15:11 Flaps:0 at 145 Knots
15:24 Wind:033º@015 Knots Heading: 264º Ground Speed: 243 Knots Altitude 17624 ft
15:30 TOC
15:30 Fuel Weight: 3105 Lb
15:39 Wind:116º@010 Knots Heading: 258º Ground Speed: 271 Knots Altitude 23139 ft
15:54 Wind:120º@036 Knots Heading: 248º Ground Speed: 287 Knots Altitude 23120 ft
16:08 TOD
16:08 Fuel Weight: 2071 Lb
16:09 Wind:228º@027 Knots Heading: 247º Ground Speed: 252 Knots Altitude 22709 ft
16:24 Wind:194º@006 Knots Heading: 244º Ground Speed: 214 Knots Altitude 4104 ft
16:30 Gear Down: 135 Knots
16:31 Flaps:1 at 152 Knots
16:31 Flaps:2 at 135 Knots
16:31 Flaps:3 at 122 Knots
16:32 TouchDown:Rate -465 ft/min Speed: 98 Knots
16:32 VATSIM:LEIB 121600Z 19003KT 9999 FEW045 24/18 Q1017 NOSIG
16:32 Land
16:32 Wind:192º@004 Knots
16:32 Heading: 241º
16:32 Flight Duration: 01:23
16:32 Landing Weight: 39936 Lbs
16:32 POS N38º 52´ 30´´ E001º 22´ 44´´
16:36 Parking brakes on
16:36 Block to Block Duration: 01:33
16:36 Final Fuel: 1587 Lbls
16:36 Spent Fuel: 2411 Lbls
16:36 Flight Length: 342 NM
16:36 TOD Land Length: 90 NM

Exportar CSV

Powered by Drupal - Modified by Danger4k